Time;durP1;ratioP1;P1;durP2;ratioP2;P2;SDS_P1;SDS_P2;PMS_P1;PMS_P2;Temp;Humidity;BMP_temperature;BMP_pressure;BME280_temperature;BME280_humidity;BME280_pressure;Samples;Min_cycle;Max_cycle;Signal;HPM_P1;HPM_P2
2021/06/24 00:00:54;;;;;;;7.47;2.85;;;;;;;19.46;56.72;97342.34;5032536;28;20459;-59
2021/06/24 00:03:19;;;;;;;6.63;2.50;;;;;;;19.37;56.98;97345.13;5064408;28;20163;-59
2021/06/24 00:05:45;;;;;;;3.85;2.33;;;;;;;19.39;56.37;97339.50;5033113;28;20108;-59
2021/06/24 00:08:12;;;;;;;5.18;2.53;;;;;;;19.45;56.13;97336.03;5034782;28;20162;-59
2021/06/24 00:10:40;;;;;;;5.80;2.65;;;;;;;19.37;56.46;97336.06;5034643;28;20040;-59
2021/06/24 00:13:06;;;;;;;5.10;2.47;;;;;;;19.46;55.97;97328.72;5034502;28;20083;-59
2021/06/24 00:15:32;;;;;;;5.30;2.50;;;;;;;19.55;55.83;97333.09;5034589;28;20030;-58
2021/06/24 00:17:58;;;;;;;4.80;2.20;;;;;;;19.61;55.65;97321.44;5034132;28;20036;-59
2021/06/24 00:20:23;;;;;;;5.13;2.50;;;;;;;19.62;55.23;97320.41;5033304;28;20033;-59
2021/06/24 00:22:49;;;;;;;4.40;2.25;;;;;;;19.68;55.00;97322.41;5033838;28;20486;-59
2021/06/24 00:25:14;;;;;;;5.03;2.10;;;;;;;19.68;54.61;97324.28;5034291;28;20034;-58
2021/06/24 00:27:40;;;;;;;5.35;2.30;;;;;;;19.76;54.33;97318.75;5034343;28;20044;-58
2021/06/24 00:30:07;;;;;;;3.58;2.00;;;;;;;19.84;53.37;97313.28;5032656;28;20029;-58
2021/06/24 00:32:32;;;;;;;6.70;2.20;;;;;;;19.95;53.15;97319.31;5032526;28;20026;-58
2021/06/24 00:35:02;;;;;;;6.00;2.20;;;;;;;19.99;53.61;97312.47;5034085;28;20030;-58
2021/06/24 00:37:28;;;;;;;5.70;2.55;;;;;;;20.01;53.01;97310.41;5034400;28;20083;-58
2021/06/24 00:39:54;;;;;;;5.07;2.13;;;;;;;20.10;52.58;97306.56;5032693;28;20037;-58
2021/06/24 00:42:19;;;;;;;3.75;2.00;;;;;;;20.09;52.45;97302.16;5032484;28;20033;-58
2021/06/24 00:44:45;;;;;;;4.35;2.00;;;;;;;20.13;51.92;97308.94;5032822;28;20035;-58
2021/06/24 00:47:11;;;;;;;3.05;2.00;;;;;;;20.19;51.54;97302.75;5032482;28;20029;-58
2021/06/24 00:49:36;;;;;;;5.28;2.15;;;;;;;20.21;51.51;97303.38;5015965;28;20033;-58
2021/06/24 00:52:02;;;;;;;5.32;2.38;;;;;;;20.23;51.31;97303.22;5033571;28;20371;-58
2021/06/24 00:54:27;;;;;;;5.78;2.50;;;;;;;20.24;51.30;97302.16;5032422;28;20029;-58
2021/06/24 00:56:53;;;;;;;4.88;2.10;;;;;;;20.22;51.45;97291.44;5033867;28;20030;-58
2021/06/24 00:59:18;;;;;;;4.07;2.30;;;;;;;20.22;50.89;97302.34;5032243;28;20029;-58
2021/06/24 01:01:44;;;;;;;4.78;2.10;;;;;;;20.23;50.94;97297.75;5032498;28;20033;-58
2021/06/24 01:04:09;;;;;;;3.45;1.90;;;;;;;20.30;50.33;97295.97;5015683;28;20083;-58
2021/06/24 01:06:35;;;;;;;3.45;2.20;;;;;;;20.35;49.84;97293.53;5033525;28;20026;-59
2021/06/24 01:09:00;;;;;;;5.68;2.22;;;;;;;20.24;51.07;97292.13;5032192;28;20029;-58
2021/06/24 01:11:26;;;;;;;4.15;1.85;;;;;;;20.04;52.85;97290.94;5033299;28;20036;-59
2021/06/24 01:13:52;;;;;;;4.63;2.30;;;;;;;19.94;53.73;97295.81;5033865;28;20036;-58
2021/06/24 01:16:17;;;;;;;4.88;2.53;;;;;;;19.90;53.78;97290.72;5033280;28;20542;-58
2021/06/24 01:18:43;;;;;;;6.30;2.30;;;;;;;19.90;54.26;97289.88;5033264;28;20033;-58
2021/06/24 01:21:08;;;;;;;5.88;2.50;;;;;;;19.69;54.69;97287.78;5027951;28;20056;-57
2021/06/24 01:23:42;;;;;;;4.70;2.30;;;;;;;19.67;54.76;97287.09;5031436;28;20026;-58
2021/06/24 01:26:08;;;;;;;3.90;1.92;;;;;;;19.61;54.82;97291.41;5013192;28;20029;-58
2021/06/24 01:28:34;;;;;;;6.53;2.60;;;;;;;19.54;54.53;97291.31;5031841;28;20029;-59
2021/06/24 01:30:59;;;;;;;7.20;2.42;;;;;;;19.53;54.11;97286.88;5031221;28;20388;-59
2021/06/24 01:33:25;;;;;;;7.15;2.22;;;;;;;19.61;54.14;97285.13;5031601;28;20061;-59
2021/06/24 01:35:58;;;;;;;7.28;2.08;;;;;;;19.56;54.03;97291.97;5032749;28;20174;-59
2021/06/24 01:38:23;;;;;;;4.40;2.15;;;;;;;19.64;53.56;97280.16;5031410;28;20056;-59
2021/06/24 01:40:48;;;;;;;4.30;2.25;;;;;;;19.70;52.92;97281.31;5030557;28;20064;-59
2021/06/24 01:43:24;;;;;;;3.95;2.40;;;;;;;19.77;52.77;97282.25;5033576;28;20443;-59
2021/06/24 01:45:52;;;;;;;5.68;2.00;;;;;;;19.85;52.18;97284.09;5036422;28;20028;-59
2021/06/24 01:48:18;;;;;;;5.00;2.13;;;;;;;19.54;55.59;97280.38;5036854;28;20460;-59
2021/06/24 01:50:44;;;;;;;6.30;2.15;;;;;;;19.47;55.10;97278.56;5035595;28;20026;-59
2021/06/24 01:53:09;;;;;;;6.97;2.28;;;;;;;19.24;56.93;97282.13;5034837;28;20045;-59
2021/06/24 01:55:36;;;;;;;5.22;2.20;;;;;;;19.15;57.10;97281.34;5029454;28;20051;-59
2021/06/24 01:58:04;;;;;;;3.35;1.92;;;;;;;19.13;56.71;97277.94;5032866;28;20025;-58
2021/06/24 02:00:30;;;;;;;6.68;2.35;;;;;;;19.07;57.62;97281.41;5033365;28;20048;-59
2021/06/24 02:02:56;;;;;;;5.07;2.20;;;;;;;18.94;58.48;97275.66;5033133;28;20486;-59
2021/06/24 02:05:21;;;;;;;4.97;2.30;;;;;;;18.93;58.11;97272.06;5033538;28;20449;-59
2021/06/24 02:07:47;;;;;;;5.03;2.40;;;;;;;18.70;58.67;97274.72;5032101;28;20692;-59
2021/06/24 02:10:13;;;;;;;4.22;2.28;;;;;;;18.82;57.99;97276.03;5034254;28;20029;-58
2021/06/24 02:12:39;;;;;;;4.82;2.30;;;;;;;18.79;58.20;97270.94;5032889;28;20021;-59
2021/06/24 02:15:07;;;;;;;8.13;2.78;;;;;;;18.79;57.77;97262.75;5032731;28;20080;-59
2021/06/24 02:17:33;;;;;;;4.45;2.22;;;;;;;19.04;55.99;97268.09;5035471;28;20032;-59
2021/06/24 02:19:58;;;;;;;4.57;2.30;;;;;;;19.06;56.26;97271.50;5034006;28;20025;-59
2021/06/24 02:22:24;;;;;;;5.40;2.00;;;;;;;19.05;56.28;97267.94;5034646;28;20061;-59
2021/06/24 02:24:49;;;;;;;3.50;2.20;;;;;;;19.14;55.67;97267.91;5035286;28;20025;-59
2021/06/24 02:27:15;;;;;;;6.28;2.30;;;;;;;19.02;56.66;97268.28;5035992;28;20029;-59
2021/06/24 02:29:40;;;;;;;4.88;2.30;;;;;;;19.02;55.91;97271.00;5035649;28;20057;-58
2021/06/24 02:32:06;;;;;;;4.78;2.00;;;;;;;19.00;56.62;97270.34;5035088;28;20405;-59
2021/06/24 02:34:32;;;;;;;3.88;2.13;;;;;;;19.06;55.74;97264.16;5034836;28;20374;-60
2021/06/24 02:36:58;;;;;;;3.67;2.00;;;;;;;18.93;56.70;97266.63;5034311;28;20022;-59
2021/06/24 02:39:23;;;;;;;3.15;1.90;;;;;;;18.91;57.68;97263.25;5032870;28;20032;-60
2021/06/24 02:41:49;;;;;;;7.32;2.25;;;;;;;18.83;57.71;97269.56;5032546;28;20040;-60
2021/06/24 02:44:14;;;;;;;7.88;2.20;;;;;;;18.85;57.43;97270.25;5033879;28;20026;-60
2021/06/24 02:46:40;;;;;;;4.68;2.50;;;;;;;18.83;57.64;97266.81;5033744;28;20021;-60
2021/06/24 02:49:06;;;;;;;6.18;2.25;;;;;;;18.72;58.15;97269.97;5033447;28;20584;-59
2021/06/24 02:51:31;;;;;;;5.50;2.42;;;;;;;18.69;57.90;97264.84;5032522;28;20041;-59
2021/06/24 02:53:57;;;;;;;3.50;2.10;;;;;;;18.78;58.19;97262.94;5032711;28;20029;-59
2021/06/24 02:56:23;;;;;;;5.60;2.30;;;;;;;18.84;56.89;97260.34;5035522;28;20032;-60
2021/06/24 02:58:49;;;;;;;4.30;2.20;;;;;;;18.92;56.17;97254.06;5035328;28;20021;-60
2021/06/24 03:01:14;;;;;;;5.55;2.20;;;;;;;18.97;55.98;97261.69;5035275;28;20052;-59
2021/06/24 03:03:40;;;;;;;9.13;2.50;;;;;;;19.00;56.14;97262.19;5035426;28;20033;-59
2021/06/24 03:06:05;;;;;;;3.83;2.20;;;;;;;19.09;56.04;97252.06;5033704;28;20026;-60
2021/06/24 03:08:31;;;;;;;4.95;2.20;;;;;;;18.90;56.65;97262.38;5033540;28;20482;-59
2021/06/24 03:10:56;;;;;;;4.65;2.28;;;;;;;18.80;56.93;97264.47;5035551;28;20541;-59
2021/06/24 03:13:21;;;;;;;4.75;2.17;;;;;;;18.89;56.51;97268.88;5035762;28;20076;-60
2021/06/24 03:15:47;;;;;;;3.70;2.00;;;;;;;19.01;54.94;97261.16;5035764;28;20487;-59
2021/06/24 03:18:12;;;;;;;5.20;2.10;;;;;;;19.16;54.53;97263.09;5034000;28;20029;-59
2021/06/24 03:20:38;;;;;;;3.03;2.05;;;;;;;19.34;53.52;97260.94;5035187;28;20393;-60
2021/06/24 03:23:03;;;;;;;5.90;2.20;;;;;;;19.05;55.45;97261.63;5034079;28;20696;-60
2021/06/24 03:25:29;;;;;;;5.20;2.10;;;;;;;18.98;56.90;97268.84;5033418;28;20029;-60
2021/06/24 03:27:54;;;;;;;4.80;2.30;;;;;;;18.85;57.23;97274.81;5032548;28;20478;-60
2021/06/24 03:30:21;;;;;;;5.63;2.28;;;;;;;18.74;58.16;97273.34;5033092;28;20057;-59
2021/06/24 03:32:46;;;;;;;4.82;2.30;;;;;;;18.69;58.49;97270.28;5033346;28;20033;-60
2021/06/24 03:35:12;;;;;;;4.22;2.42;;;;;;;18.68;58.68;97265.84;5032980;28;20061;-60
2021/06/24 03:37:38;;;;;;;7.32;2.47;;;;;;;18.70;59.03;97274.72;5033236;28;20025;-60
2021/06/24 03:40:07;;;;;;;3.30;2.28;;;;;;;18.73;59.15;97268.91;5034944;28;20105;-59
2021/06/24 03:42:33;;;;;;;4.07;2.40;;;;;;;18.72;58.83;97262.63;5034752;28;20033;-59
2021/06/24 03:44:58;;;;;;;6.55;2.33;;;;;;;18.68;58.71;97263.13;5033715;28;20381;-60
2021/06/24 03:47:23;;;;;;;5.45;2.30;;;;;;;18.68;58.46;97260.41;5035463;28;20033;-59
2021/06/24 03:49:49;;;;;;;4.13;2.05;;;;;;;18.72;57.50;97254.44;5033693;28;20025;-59
2021/06/24 03:52:15;;;;;;;4.43;2.30;;;;;;;18.77;57.34;97269.41;5034781;28;20474;-59
2021/06/24 03:54:40;;;;;;;3.70;2.20;;;;;;;18.73;57.47;97263.47;5034995;28;20484;-59
2021/06/24 03:57:06;;;;;;;4.88;2.17;;;;;;;18.84;56.68;97267.66;5034749;28;20429;-59
2021/06/24 03:59:31;;;;;;;4.13;2.20;;;;;;;18.75;57.58;97266.88;5034817;28;20029;-59
2021/06/24 04:01:57;;;;;;;5.00;2.20;;;;;;;18.71;58.41;97270.97;5034500;28;20465;-59
2021/06/24 04:04:22;;;;;;;4.43;2.20;;;;;;;18.77;57.34;97269.41;5034734;28;20025;-59
2021/06/24 04:06:47;;;;;;;5.13;2.13;;;;;;;18.77;58.00;97272.97;5032415;28;20489;-59
2021/06/24 04:09:14;;;;;;;4.10;2.22;;;;;;;18.60;59.52;97276.78;5034359;28;20398;-59
2021/06/24 04:11:40;;;;;;;4.80;2.33;;;;;;;18.57;59.37;97280.72;5034618;28;20104;-60
2021/06/24 04:14:05;;;;;;;3.28;2.20;;;;;;;18.57;59.85;97284.31;5034458;28;20108;-59
2021/06/24 04:16:31;;;;;;;6.20;2.30;;;;;;;18.54;60.78;97281.91;5034541;28;20491;-59
2021/06/24 04:18:56;;;;;;;4.53;2.58;;;;;;;18.62;59.96;97289.22;5034455;28;20029;-59
2021/06/24 04:21:21;;;;;;;5.35;2.78;;;;;;;18.42;60.51;97286.03;5033948;28;20501;-59
2021/06/24 04:23:47;;;;;;;7.65;2.70;;;;;;;18.56;59.87;97290.78;5032973;28;20488;-60
2021/06/24 04:26:12;;;;;;;6.68;2.80;;;;;;;18.49;60.37;97292.50;5034134;28;20032;-59
2021/06/24 04:28:38;;;;;;;8.32;3.15;;;;;;;18.48;61.15;97303.56;5033953;28;20033;-59
2021/06/24 04:31:03;;;;;;;10.57;3.15;;;;;;;18.55;60.18;97296.41;5030799;28;21300;-59
2021/06/24 04:33:28;;;;;;;6.15;2.70;;;;;;;18.45;61.24;97307.47;5032554;28;20400;-59
2021/06/24 04:35:54;;;;;;;7.95;2.70;;;;;;;18.58;60.49;97306.94;5033462;28;20033;-58
2021/06/24 04:38:19;;;;;;;5.68;2.70;;;;;;;18.42;61.57;97313.28;5033095;28;20025;-58
2021/06/24 04:40:45;;;;;;;10.23;2.90;;;;;;;18.36;61.11;97306.66;5032290;28;20087;-59
2021/06/24 04:43:10;;;;;;;6.35;2.92;;;;;;;18.49;60.84;97307.97;5032994;28;20037;-59
2021/06/24 04:45:36;;;;;;;7.15;4.05;;;;;;;18.64;60.07;97308.09;5032482;28;20112;-59
2021/06/24 04:48:02;;;;;;;10.85;5.13;;;;;;;18.70;60.89;97308.25;5031510;28;20056;-60
2021/06/24 04:50:27;;;;;;;10.07;5.28;;;;;;;18.77;61.10;97315.72;5031737;28;20018;-59
2021/06/24 04:52:53;;;;;;;11.45;5.85;;;;;;;18.69;61.37;97308.44;5031280;28;20025;-59
2021/06/24 04:55:18;;;;;;;11.43;5.30;;;;;;;18.87;59.84;97311.75;5031423;28;20017;-60
2021/06/24 04:57:44;;;;;;;12.15;6.85;;;;;;;18.77;62.36;97311.13;5032933;28;20080;-60
2021/06/24 05:00:10;;;;;;;12.10;6.50;;;;;;;18.62;63.10;97304.72;5031424;28;20076;-59
2021/06/24 05:02:35;;;;;;;10.98;5.30;;;;;;;18.69;62.04;97309.28;5032413;28;20389;-59
2021/06/24 05:05:05;;;;;;;10.85;5.00;;;;;;;18.70;61.74;97307.41;5031340;28;20415;-59
2021/06/24 05:07:30;;;;;;;9.68;4.72;;;;;;;18.76;62.44;97305.84;5015030;28;20021;-59
2021/06/24 05:09:56;;;;;;;7.57;3.40;;;;;;;18.87;61.24;97309.03;5032638;28;20452;-60
2021/06/24 05:12:21;;;;;;;5.80;3.17;;;;;;;19.12;59.90;97306.25;5032186;28;20044;-60
2021/06/24 05:14:46;;;;;;;9.20;3.47;;;;;;;19.13;62.04;97296.19;5015221;28;20032;-60
2021/06/24 05:17:14;;;;;;;6.10;3.10;;;;;;;19.21;60.72;97307.03;5032691;28;20108;-59
2021/06/24 05:19:40;;;;;;;3.90;2.60;;;;;;;19.34;58.97;97301.84;5031790;28;20021;-60
2021/06/24 05:22:06;;;;;;;11.10;3.15;;;;;;;19.29;61.95;97311.59;5014845;28;20053;-60
2021/06/24 05:24:33;;;;;;;12.50;3.20;;;;;;;19.22;62.34;97306.84;5031841;28;20018;-59
2021/06/24 05:26:58;;;;;;;4.20;2.50;;;;;;;19.43;60.80;97316.28;5032690;28;20513;-60
2021/06/24 05:29:24;;;;;;;6.05;3.03;;;;;;;19.52;60.44;97312.47;5032604;28;20030;-60
2021/06/24 05:31:49;;;;;;;4.75;2.33;;;;;;;19.64;58.43;97320.22;5032827;28;20013;-59
2021/06/24 05:34:15;;;;;;;4.53;2.60;;;;;;;19.68;58.45;97322.41;5031457;28;20390;-60
2021/06/24 05:36:41;;;;;;;5.30;2.53;;;;;;;19.71;57.91;97323.94;5032235;28;20029;-60
2021/06/24 05:39:06;;;;;;;5.38;2.50;;;;;;;19.81;58.09;97321.00;5032449;28;20025;-60
2021/06/24 05:41:32;;;;;;;5.00;2.63;;;;;;;19.87;57.71;97326.56;5031874;28;20375;-59
2021/06/24 05:43:57;;;;;;;4.28;2.50;;;;;;;19.92;57.66;97322.44;5032786;28;20030;-59
2021/06/24 05:46:23;;;;;;;5.53;2.42;;;;;;;19.95;57.54;97324.78;5031941;28;20466;-60
2021/06/24 05:48:52;;;;;;;6.95;2.90;;;;;;;19.97;57.79;97331.75;5031905;28;20090;-60
2021/06/24 05:51:18;;;;;;;7.55;2.75;;;;;;;19.96;58.40;97327.31;5029294;28;20489;-60
2021/06/24 05:53:44;;;;;;;5.18;2.50;;;;;;;20.05;58.09;97325.38;5030597;28;20108;-59
2021/06/24 05:56:09;;;;;;;5.07;2.83;;;;;;;20.19;58.23;97332.78;5030431;28;20376;-60
2021/06/24 05:58:35;;;;;;;7.57;2.67;;;;;;;20.36;57.38;97330.75;5029108;28;20033;-60
2021/06/24 06:01:00;;;;;;;5.85;2.58;;;;;;;20.45;57.10;97328.75;5029181;28;20025;-61
2021/06/24 06:03:26;;;;;;;6.25;2.80;;;;;;;20.56;57.05;97338.38;5029435;28;20722;-60
2021/06/24 06:05:52;;;;;;;8.85;3.00;;;;;;;20.68;57.78;97336.03;5031639;28;20053;-60
2021/06/24 06:08:18;;;;;;;7.28;2.70;;;;;;;20.74;58.48;97335.31;5031995;28;20025;-59
2021/06/24 06:10:44;;;;;;;6.55;3.10;;;;;;;20.72;58.86;97340.13;5031340;28;20504;-59
2021/06/24 06:13:10;;;;;;;8.00;3.40;;;;;;;20.83;58.53;97347.00;5032289;28;20029;-60
2021/06/24 06:15:38;;;;;;;7.00;3.22;;;;;;;20.84;59.78;97345.97;5031018;28;20017;-60
2021/06/24 06:18:11;;;;;;;7.75;2.97;;;;;;;20.98;58.94;97346.97;5031189;28;20039;-60
2021/06/24 06:20:36;;;;;;;6.38;3.10;;;;;;;21.02;59.93;97349.16;5032311;28;20457;-60
2021/06/24 06:23:02;;;;;;;6.32;3.33;;;;;;;21.07;60.57;97354.91;5023556;28;20144;-59
2021/06/24 06:25:27;;;;;;;7.63;3.25;;;;;;;21.26;60.11;97354.50;5029081;28;20025;-60
2021/06/24 06:27:53;;;;;;;5.97;3.40;;;;;;;21.32;60.17;97353.75;5029982;28;20401;-60
2021/06/24 06:30:19;;;;;;;5.20;3.10;;;;;;;21.44;59.98;97359.56;5032725;28;20500;-60
2021/06/24 06:32:44;;;;;;;8.55;3.50;;;;;;;21.50;59.09;97358.78;5033357;28;20029;-60
2021/06/24 06:35:10;;;;;;;7.60;3.30;;;;;;;21.52;59.27;97357.56;5032279;28;20032;-59
2021/06/24 06:37:36;;;;;;;6.57;2.95;;;;;;;21.59;59.06;97359.56;5030929;28;20033;-59
2021/06/24 06:40:01;;;;;;;8.63;3.10;;;;;;;21.65;57.27;97361.53;5032847;28;20033;-59
2021/06/24 06:42:26;;;;;;;5.60;3.15;;;;;;;21.76;57.79;97354.69;5032550;28;20029;-59
2021/06/24 06:44:52;;;;;;;9.02;3.10;;;;;;;21.82;57.57;97348.44;5035494;28;20466;-59
2021/06/24 06:47:17;;;;;;;6.10;3.00;;;;;;;22.03;55.15;97358.53;5034849;28;20037;-59
2021/06/24 06:49:43;;;;;;;5.80;3.08;;;;;;;22.09;56.12;97352.28;5035384;28;20026;-59
2021/06/24 06:52:08;;;;;;;5.93;2.90;;;;;;;22.10;55.92;97356.72;5035096;28;20029;-59
2021/06/24 06:54:35;;;;;;;6.40;2.75;;;;;;;22.19;56.04;97350.06;5035145;28;20021;-59
2021/06/24 06:57:00;;;;;;;6.15;3.28;;;;;;;22.12;55.54;97349.16;5034094;28;20100;-59
2021/06/24 06:59:25;;;;;;;4.00;2.70;;;;;;;22.29;55.62;97348.84;5035052;28;20100;-60
2021/06/24 07:01:51;;;;;;;5.35;2.70;;;;;;;22.43;53.35;97349.88;5034992;28;20029;-59
2021/06/24 07:04:16;;;;;;;6.22;2.70;;;;;;;22.60;51.91;97355.91;5033936;28;20060;-59
2021/06/24 07:06:42;;;;;;;7.47;3.28;;;;;;;22.73;50.79;97358.72;5034559;28;20034;-59
2021/06/24 07:09:08;;;;;;;6.45;2.70;;;;;;;22.78;49.81;97358.94;5033357;28;20021;-59
2021/06/24 07:11:33;;;;;;;10.60;2.70;;;;;;;22.84;48.68;97360.91;5033333;28;20068;-59
2021/06/24 07:13:59;;;;;;;10.40;2.97;;;;;;;22.92;49.11;97359.06;5035131;28;20105;-59
2021/06/24 07:16:25;;;;;;;6.63;2.70;;;;;;;23.01;48.92;97360.56;5033773;28;20021;-59
2021/06/24 07:18:50;;;;;;;7.53;3.00;;;;;;;23.06;49.12;97360.81;5034487;28;20028;-59
2021/06/24 07:21:16;;;;;;;6.55;2.83;;;;;;;23.12;49.43;97356.44;5034378;28;20049;-59
2021/06/24 07:23:41;;;;;;;7.30;2.60;;;;;;;23.17;48.82;97357.53;5033204;28;20029;-59
2021/06/24 07:26:07;;;;;;;5.68;2.55;;;;;;;23.28;47.47;97353.38;5015796;28;20021;-60
2021/06/24 07:28:32;;;;;;;6.30;2.40;;;;;;;23.37;47.72;97346.66;5033174;28;20103;-59
2021/06/24 07:30:58;;;;;;;10.23;3.30;;;;;;;23.48;47.86;97349.88;5033913;28;20481;-60
2021/06/24 07:33:23;;;;;;;4.65;2.55;;;;;;;23.52;47.71;97354.72;5033074;28;20091;-59
2021/06/24 07:35:49;;;;;;;7.65;2.50;;;;;;;23.55;47.64;97357.03;5034196;28;20021;-59
2021/06/24 07:38:14;;;;;;;8.13;2.67;;;;;;;23.57;47.99;97356.84;5032347;28;20029;-59
2021/06/24 07:40:40;;;;;;;8.18;2.50;;;;;;;23.44;46.93;97349.41;5032606;28;20505;-59
2021/06/24 07:43:06;;;;;;;8.02;2.47;;;;;;;23.59;47.04;97354.75;5031649;28;20103;-59
2021/06/24 07:45:32;;;;;;;6.95;2.47;;;;;;;23.62;47.41;97357.06;5033005;28;20138;-59
2021/06/24 07:47:58;;;;;;;7.97;2.58;;;;;;;23.68;47.99;97355.41;5032577;28;20419;-59
2021/06/24 07:50:24;;;;;;;8.30;2.90;;;;;;;23.87;47.37;97351.00;5032537;28;20026;-59
2021/06/24 07:52:49;;;;;;;6.18;2.80;;;;;;;23.99;46.33;97354.03;5033864;28;20037;-59
2021/06/24 07:55:15;;;;;;;6.15;2.70;;;;;;;24.09;45.98;97357.19;5033422;28;20080;-59
2021/06/24 07:57:40;;;;;;;5.20;2.25;;;;;;;24.18;45.44;97349.59;5033642;28;20493;-59
2021/06/24 08:00:07;;;;;;;6.85;2.40;;;;;;;24.15;44.83;97350.03;5033416;28;20079;-59
2021/06/24 08:02:33;;;;;;;8.02;2.85;;;;;;;24.26;45.94;97351.31;5032351;28;20025;-59
2021/06/24 08:04:58;;;;;;;6.35;2.50;;;;;;;24.17;46.41;97343.28;5032017;28;20033;-59
2021/06/24 08:07:23;;;;;;;7.20;2.45;;;;;;;24.28;46.46;97351.94;5033431;28;20417;-59
2021/06/24 08:09:51;;;;;;;8.93;2.60;;;;;;;24.38;46.01;97344.94;5034302;28;20029;-59
2021/06/24 08:12:16;;;;;;;6.88;2.67;;;;;;;24.52;45.65;97355.94;5033631;28;20021;-59
2021/06/24 08:14:42;;;;;;;4.05;2.50;;;;;;;24.55;44.38;97361.88;5033052;28;20034;-59
2021/06/24 08:17:07;;;;;;;5.70;2.50;;;;;;;24.60;42.07;97355.75;5031242;28;20113;-59
2021/06/24 08:19:33;;;;;;;5.63;2.20;;;;;;;24.56;43.64;97363.56;5032963;28;20396;-60
2021/06/24 08:21:59;;;;;;;6.50;2.50;;;;;;;24.73;44.37;97361.25;5030319;28;20575;-59
2021/06/24 08:24:25;;;;;;;6.90;2.58;;;;;;;24.77;44.05;97367.16;5031546;28;21621;-59
2021/06/24 08:26:51;;;;;;;6.55;2.60;;;;;;;24.64;43.61;97359.78;5032597;28;20032;-59
2021/06/24 08:29:17;;;;;;;7.20;2.70;;;;;;;24.69;42.97;97364.63;5030284;28;20041;-59
2021/06/24 08:31:43;;;;;;;7.25;2.75;;;;;;;24.86;43.25;97360.38;5025575;28;20041;-59
2021/06/24 08:34:08;;;;;;;8.27;2.70;;;;;;;24.95;41.77;97365.63;5031725;28;20470;-60
2021/06/24 08:36:33;;;;;;;4.38;2.55;;;;;;;25.01;41.22;97365.66;5032312;28;20025;-59
2021/06/24 08:38:59;;;;;;;6.60;2.47;;;;;;;25.02;41.01;97374.75;5029346;28;20067;-59
2021/06/24 08:41:25;;;;;;;8.65;2.50;;;;;;;24.93;40.58;97373.28;5029923;28;20076;-59
2021/06/24 08:43:52;;;;;;;6.32;2.30;;;;;;;25.09;39.27;97371.97;5032390;28;20083;-59
2021/06/24 08:46:19;;;;;;;5.40;2.20;;;;;;;25.11;39.75;97378.09;5031391;28;20021;-59
2021/06/24 08:48:45;;;;;;;8.38;2.60;;;;;;;24.73;40.38;97369.50;5029322;28;20033;-59
2021/06/24 08:51:10;;;;;;;6.25;2.58;;;;;;;25.03;41.27;97374.53;5028761;28;20033;-59
2021/06/24 08:53:36;;;;;;;6.35;2.40;;;;;;;24.94;39.66;97372.22;5032535;28;20035;-59
2021/06/24 08:56:01;;;;;;;6.13;2.42;;;;;;;25.17;40.71;97369.81;5031688;28;20031;-59
2021/06/24 08:58:27;;;;;;;7.88;2.67;;;;;;;25.21;40.60;97375.75;5032022;28;20379;-58
2021/06/24 09:00:53;;;;;;;7.25;2.42;;;;;;;25.32;42.07;97382.47;5032875;28;20025;-57
2021/06/24 09:03:24;;;;;;;8.50;2.90;;;;;;;25.39;40.04;97378.69;5033174;28;20044;-58
2021/06/24 09:05:55;;;;;;;5.90;2.60;;;;;;;25.30;39.55;97374.44;5032251;28;20080;-58
2021/06/24 09:08:52;;;;;;;7.88;2.67;;;;;;;25.34;38.47;97377.66;5011931;28;20030;-58
2021/06/24 09:11:25;;;;;;;7.43;2.50;;;;;;;25.44;40.08;97377.19;5042657;28;20085;-59
2021/06/24 09:14:20;;;;;;;5.82;2.40;;;;;;;25.34;39.04;97372.16;5011722;28;20030;-58
2021/06/24 09:16:45;;;;;;;6.28;2.50;;;;;;;25.21;39.74;97370.25;5011593;28;20112;-58
2021/06/24 09:19:11;;;;;;;5.53;2.40;;;;;;;25.56;39.85;97381.78;5012210;28;20497;-58
2021/06/24 09:21:36;;;;;;;4.70;2.78;;;;;;;25.72;38.55;97377.69;5012790;28;20057;-58
2021/06/24 09:24:01;;;;;;;6.57;2.30;;;;;;;25.70;38.87;97373.47;5059369;28;20030;-58
2021/06/24 09:26:32;;;;;;;5.13;2.30;;;;;;;25.88;38.99;97378.22;5032676;28;20017;-58
2021/06/24 09:28:59;;;;;;;9.13;2.42;;;;;;;25.90;38.29;97376.94;5029695;28;20021;-58
2021/06/24 09:31:26;;;;;;;8.10;2.63;;;;;;;25.93;38.14;97377.59;5031168;28;20033;-58
2021/06/24 09:33:53;;;;;;;6.18;2.50;;;;;;;25.95;38.03;97375.44;5031577;28;20014;-58
2021/06/24 09:36:39;;;;;;;7.03;2.40;;;;;;;25.99;38.50;97372.03;5023241;28;20086;-59
2021/06/24 09:39:29;;;;;;;6.50;2.38;;;;;;;26.12;38.08;97371.13;5029433;28;20481;-58
2021/06/24 09:41:55;;;;;;;6.70;2.50;;;;;;;26.10;38.00;97364.16;5031914;28;20032;-58
2021/06/24 09:44:22;;;;;;;6.28;2.53;;;;;;;26.16;38.36;97371.53;5032347;28;20025;-58
2021/06/24 09:46:47;;;;;;;5.95;2.33;;;;;;;26.08;38.67;97369.88;5030600;28;20025;-58
2021/06/24 09:49:34;;;;;;;7.82;2.55;;;;;;;26.08;39.87;97371.78;5030594;28;20079;-57
2021/06/24 09:52:02;;;;;;;5.93;2.30;;;;;;;26.09;38.82;97367.97;5026578;28;20033;-57
2021/06/24 09:54:51;;;;;;;5.82;2.50;;;;;;;26.21;38.49;97371.72;5031073;28;20453;-57
2021/06/24 09:57:24;;;;;;;6.80;2.70;;;;;;;26.40;38.06;97372.63;5029814;28;20508;-58
2021/06/24 09:59:50;;;;;;;5.30;2.50;;;;;;;26.46;37.09;97368.97;5031048;28;20067;-57
2021/06/24 10:02:16;;;;;;;11.60;2.50;;;;;;;26.10;38.20;97367.75;5029611;28;20512;-58
2021/06/24 10:04:45;;;;;;;5.53;2.33;;;;;;;26.28;38.06;97375.25;5032102;28;20025;-57
2021/06/24 10:07:16;;;;;;;3.47;2.13;;;;;;;26.15;35.71;97372.59;5030307;28;20037;-59
2021/06/24 10:09:42;;;;;;;;;;;;;;;25.97;37.21;97371.41;5034779;28;20470;-57
2021/06/24 10:12:14;;;;;;;4.65;2.45;;;;;;;26.30;38.23;97369.53;5032709;28;20293;-57
2021/06/24 10:14:41;;;;;;;5.45;2.60;;;;;;;26.20;37.79;97370.88;5034669;28;20497;-57
2021/06/24 10:17:07;;;;;;;6.43;2.50;;;;;;;26.27;37.05;97365.31;5035549;28;20033;-57
2021/06/24 10:19:34;;;;;;;5.50;2.40;;;;;;;25.79;38.24;97369.41;5035628;28;20496;-55
2021/06/24 10:22:09;;;;;;;8.02;2.58;;;;;;;26.27;38.94;97367.19;5034308;28;20049;-53
2021/06/24 10:24:42;;;;;;;5.43;2.53;;;;;;;26.17;36.23;97368.53;5035374;28;20437;-57
2021/06/24 10:27:09;;;;;;;6.20;2.60;;;;;;;26.32;38.15;97370.97;5017204;28;20030;-57
2021/06/24 10:29:41;;;;;;;6.07;2.47;;;;;;;26.16;37.28;97364.13;5035716;28;20397;-58
2021/06/24 10:32:22;;;;;;;4.80;2.20;;;;;;;26.10;36.94;97366.91;5034586;28;20121;-59
2021/06/24 10:34:48;;;;;;;4.18;2.30;;;;;;;26.30;36.01;97367.59;5031909;28;20106;-58
2021/06/24 10:37:23;;;;;;;5.55;2.53;;;;;;;26.39;35.01;97368.19;5029706;28;20152;-57
2021/06/24 10:39:54;;;;;;;8.18;2.60;;;;;;;26.59;36.21;97364.41;5033675;28;20032;-57
2021/06/24 10:42:20;;;;;;;7.40;2.60;;;;;;;26.77;37.78;97367.25;5025544;28;20414;-57
2021/06/24 10:44:51;;;;;;;4.45;2.35;;;;;;;26.78;34.99;97365.31;5034692;28;20437;-56
2021/06/24 10:47:29;;;;;;;10.13;2.70;;;;;;;26.82;34.84;97367.41;5034984;28;20109;-57
2021/06/24 10:50:27;;;;;;;7.93;2.30;;;;;;;26.96;33.18;97359.81;5035224;28;20030;-58
2021/06/24 10:53:07;;;;;;;9.57;2.60;;;;;;;26.88;35.25;97361.00;5035048;28;20097;-58
2021/06/24 10:55:41;;;;;;;5.47;2.63;;;;;;;26.72;33.52;97364.31;5035639;28;20091;-58
2021/06/24 10:58:18;;;;;;;5.13;2.60;;;;;;;26.92;34.92;97364.13;5035111;28;20029;-58
2021/06/24 11:00:45;;;;;;;8.48;2.90;;;;;;;26.66;35.95;97362.44;5035715;28;20025;-58
2021/06/24 11:03:18;;;;;;;6.32;2.58;;;;;;;26.17;35.20;97373.22;5035144;28;20116;-54
2021/06/24 11:05:44;;;;;;;7.82;2.80;;;;;;;26.34;36.95;97363.34;5033401;28;20482;-55
2021/06/24 11:08:11;;;;;;;7.78;2.85;;;;;;;26.64;34.76;97361.81;5033168;28;20041;-55
2021/06/24 11:10:53;;;;;;;6.50;2.53;;;;;;;26.95;35.53;97354.53;5034484;28;20041;-56
2021/06/24 11:13:40;;;;;;;4.68;2.60;;;;;;;26.93;35.58;97363.06;5034961;28;20083;-58
2021/06/24 11:16:21;;;;;;;7.40;2.50;;;;;;;27.01;34.93;97360.00;5033545;28;20108;-57
2021/06/24 11:19:05;;;;;;;6.97;2.80;;;;;;;27.05;34.45;97357.63;5032749;28;20128;-56
2021/06/24 11:21:31;;;;;;;9.02;2.30;;;;;;;27.07;32.58;97352.69;5029361;28;20053;-56
2021/06/24 11:24:00;;;;;;;6.55;2.10;;;;;;;26.99;32.50;97355.78;5028844;28;20096;-56
2021/06/24 11:26:25;;;;;;;4.45;2.03;;;;;;;27.22;33.12;97353.19;5030536;28;20053;-56
2021/06/24 11:29:02;;;;;;;3.15;1.90;;;;;;;27.08;32.31;97359.09;5032867;28;20508;-57
2021/06/24 11:37:11;;;;;;;3.35;1.85;;;;;;;27.11;29.70;97358.63;5014827;28;20033;-59
2021/06/24 11:39:50;;;;;;;2.67;1.50;;;;;;;26.82;28.93;97361.88;4997168;28;20402;-59